sensor_id;sensor_type;location;lat;lon;timestamp;pressure;altitude;pressure_sealevel;temperature;humidity
37878;BME280;23715;53.652;8.516;2023-10-09T00:04:39;102162.48;;;15.53;100.00
37878;BME280;23715;53.652;8.516;2023-10-09T00:09:41;102145.04;;;15.61;100.00
37878;BME280;23715;53.652;8.516;2023-10-09T00:14:51;102124.02;;;15.53;100.00
37878;BME280;23715;53.652;8.516;2023-10-09T00:19:59;102107.80;;;15.63;100.00
37878;BME280;23715;53.652;8.516;2023-10-09T00:25:01;102107.36;;;15.58;100.00
37878;BME280;23715;53.652;8.516;2023-10-09T00:30:16;102101.66;;;15.61;100.00
37878;BME280;23715;53.652;8.516;2023-10-09T00:35:29;102104.66;;;15.58;100.00
37878;BME280;23715;53.652;8.516;2023-10-09T00:40:41;102097.63;;;15.55;100.00
37878;BME280;23715;53.652;8.516;2023-10-09T00:45:39;102077.16;;;15.57;100.00
37878;BME280;23715;53.652;8.516;2023-10-09T00:50:40;102059.62;;;15.46;100.00
37878;BME280;23715;53.652;8.516;2023-10-09T00:55:43;102029.16;;;15.48;100.00
37878;BME280;23715;53.652;8.516;2023-10-09T01:00:47;102039.66;;;15.62;100.00
37878;BME280;23715;53.652;8.516;2023-10-09T01:05:50;102001.97;;;15.43;100.00
37878;BME280;23715;53.652;8.516;2023-10-09T01:10:53;101982.14;;;15.43;100.00
37878;BME280;23715;53.652;8.516;2023-10-09T01:15:56;101980.58;;;15.40;100.00
37878;BME280;23715;53.652;8.516;2023-10-09T01:20:58;101989.05;;;15.26;100.00
37878;BME280;23715;53.652;8.516;2023-10-09T01:26:00;101973.34;;;15.35;100.00
37878;BME280;23715;53.652;8.516;2023-10-09T01:31:02;101959.45;;;15.44;100.00
37878;BME280;23715;53.652;8.516;2023-10-09T01:36:04;101941.16;;;15.36;100.00
37878;BME280;23715;53.652;8.516;2023-10-09T01:41:11;101935.24;;;15.52;100.00
37878;BME280;23715;53.652;8.516;2023-10-09T01:46:13;101934.39;;;15.52;100.00
37878;BME280;23715;53.652;8.516;2023-10-09T01:51:15;101946.98;;;15.47;100.00
37878;BME280;23715;53.652;8.516;2023-10-09T01:56:16;101951.94;;;15.57;100.00
37878;BME280;23715;53.652;8.516;2023-10-09T02:01:16;101930.43;;;15.66;100.00
37878;BME280;23715;53.652;8.516;2023-10-09T02:06:17;101920.88;;;15.71;100.00
37878;BME280;23715;53.652;8.516;2023-10-09T02:11:23;101909.57;;;15.81;100.00
37878;BME280;23715;53.652;8.516;2023-10-09T02:16:30;101917.30;;;15.76;100.00
37878;BME280;23715;53.652;8.516;2023-10-09T02:21:30;101900.72;;;15.79;100.00
37878;BME280;23715;53.652;8.516;2023-10-09T02:26:37;101900.08;;;15.81;100.00
37878;BME280;23715;53.652;8.516;2023-10-09T02:31:49;101884.95;;;15.79;100.00
37878;BME280;23715;53.652;8.516;2023-10-09T02:36:54;101890.52;;;15.87;100.00
37878;BME280;23715;53.652;8.516;2023-10-09T02:41:59;101890.20;;;15.71;100.00
37878;BME280;23715;53.652;8.516;2023-10-09T02:47:13;101902.64;;;15.73;100.00
37878;BME280;23715;53.652;8.516;2023-10-09T02:52:16;101883.24;;;15.62;100.00
37878;BME280;23715;53.652;8.516;2023-10-09T02:57:20;101875.77;;;15.70;100.00
37878;BME280;23715;53.652;8.516;2023-10-09T03:02:32;101887.31;;;15.62;100.00
37878;BME280;23715;53.652;8.516;2023-10-09T03:07:32;101873.35;;;15.67;100.00
37878;BME280;23715;53.652;8.516;2023-10-09T03:12:33;101873.62;;;15.64;100.00
37878;BME280;23715;53.652;8.516;2023-10-09T03:17:45;101866.39;;;15.59;100.00
37878;BME280;23715;53.652;8.516;2023-10-09T03:22:45;101873.05;;;15.70;100.00
37878;BME280;23715;53.652;8.516;2023-10-09T03:27:49;101849.98;;;15.60;100.00
37878;BME280;23715;53.652;8.516;2023-10-09T03:32:57;101855.02;;;15.65;100.00
37878;BME280;23715;53.652;8.516;2023-10-09T03:38:03;101849.55;;;15.55;100.00
37878;BME280;23715;53.652;8.516;2023-10-09T03:43:05;101841.34;;;15.61;100.00
37878;BME280;23715;53.652;8.516;2023-10-09T03:48:13;101831.22;;;15.63;100.00
37878;BME280;23715;53.652;8.516;2023-10-09T03:53:23;101821.97;;;15.66;100.00
37878;BME280;23715;53.652;8.516;2023-10-09T04:03:40;101827.45;;;15.70;100.00
37878;BME280;23715;53.652;8.516;2023-10-09T04:08:46;101819.42;;;15.74;100.00
37878;BME280;23715;53.652;8.516;2023-10-09T04:13:50;101832.36;;;15.51;100.00
37878;BME280;23715;53.652;8.516;2023-10-09T04:18:52;101830.23;;;15.54;100.00
37878;BME280;23715;53.652;8.516;2023-10-09T04:23:59;101826.56;;;15.50;100.00
37878;BME280;23715;53.652;8.516;2023-10-09T04:29:16;101812.53;;;15.50;100.00
37878;BME280;23715;53.652;8.516;2023-10-09T04:34:32;101820.88;;;15.62;100.00
37878;BME280;23715;53.652;8.516;2023-10-09T04:39:35;101831.28;;;15.57;100.00
37878;BME280;23715;53.652;8.516;2023-10-09T04:44:39;101805.05;;;15.58;100.00
37878;BME280;23715;53.652;8.516;2023-10-09T04:49:45;101809.31;;;15.51;100.00
37878;BME280;23715;53.652;8.516;2023-10-09T04:54:57;101790.27;;;15.56;100.00
37878;BME280;23715;53.652;8.516;2023-10-09T05:00:19;101752.11;;;15.54;100.00
37878;BME280;23715;53.652;8.516;2023-10-09T05:05:30;101752.45;;;15.45;100.00
37878;BME280;23715;53.652;8.516;2023-10-09T05:10:50;101750.59;;;15.46;100.00
37878;BME280;23715;53.652;8.516;2023-10-09T05:16:02;101750.31;;;15.58;100.00
37878;BME280;23715;53.652;8.516;2023-10-09T05:21:06;101754.75;;;15.69;100.00
37878;BME280;23715;53.652;8.516;2023-10-09T05:26:15;101758.91;;;15.83;100.00
37878;BME280;23715;53.652;8.516;2023-10-09T05:31:37;101766.25;;;15.87;100.00
37878;BME280;23715;53.652;8.516;2023-10-09T05:36:50;101764.95;;;15.71;100.00
37878;BME280;23715;53.652;8.516;2023-10-09T05:41:51;101762.52;;;15.88;100.00
37878;BME280;23715;53.652;8.516;2023-10-09T05:46:52;101760.62;;;15.84;100.00
37878;BME280;23715;53.652;8.516;2023-10-09T05:52:10;101755.11;;;15.80;100.00
37878;BME280;23715;53.652;8.516;2023-10-09T05:57:32;101749.41;;;15.83;100.00
37878;BME280;23715;53.652;8.516;2023-10-09T06:02:46;101737.85;;;15.81;100.00
37878;BME280;23715;53.652;8.516;2023-10-09T06:07:50;101732.41;;;15.91;100.00
37878;BME280;23715;53.652;8.516;2023-10-09T06:12:58;101729.34;;;15.80;100.00
37878;BME280;23715;53.652;8.516;2023-10-09T06:17:58;101730.50;;;15.77;100.00
37878;BME280;23715;53.652;8.516;2023-10-09T06:23:05;101733.62;;;15.92;100.00
37878;BME280;23715;53.652;8.516;2023-10-09T06:28:18;101723.99;;;15.94;100.00
37878;BME280;23715;53.652;8.516;2023-10-09T06:33:25;101733.12;;;15.93;100.00
37878;BME280;23715;53.652;8.516;2023-10-09T06:38:33;101751.19;;;16.22;100.00
37878;BME280;23715;53.652;8.516;2023-10-09T06:43:36;101735.80;;;16.36;100.00
37878;BME280;23715;53.652;8.516;2023-10-09T06:48:40;101753.73;;;16.56;100.00
37878;BME280;23715;53.652;8.516;2023-10-09T06:53:45;101753.42;;;16.59;100.00
37878;BME280;23715;53.652;8.516;2023-10-09T06:59:00;101754.67;;;16.51;100.00
37878;BME280;23715;53.652;8.516;2023-10-09T07:04:06;101747.09;;;16.69;100.00
37878;BME280;23715;53.652;8.516;2023-10-09T07:09:24;101775.36;;;16.86;100.00
37878;BME280;23715;53.652;8.516;2023-10-09T07:14:31;101768.92;;;17.01;100.00
37878;BME280;23715;53.652;8.516;2023-10-09T07:19:37;101768.84;;;17.24;100.00
37878;BME280;23715;53.652;8.516;2023-10-09T07:24:40;101756.75;;;17.36;100.00
37878;BME280;23715;53.652;8.516;2023-10-09T07:29:50;101763.83;;;17.47;100.00
37878;BME280;23715;53.652;8.516;2023-10-09T07:34:52;101763.65;;;17.49;100.00
37878;BME280;23715;53.652;8.516;2023-10-09T07:39:55;101773.85;;;17.65;100.00
37878;BME280;23715;53.652;8.516;2023-10-09T07:45:06;101781.81;;;17.80;100.00
37878;BME280;23715;53.652;8.516;2023-10-09T07:50:14;101792.08;;;17.68;100.00
37878;BME280;23715;53.652;8.516;2023-10-09T07:55:19;101791.45;;;17.74;100.00
37878;BME280;23715;53.652;8.516;2023-10-09T08:00:35;101795.48;;;17.84;100.00
37878;BME280;23715;53.652;8.516;2023-10-09T08:05:42;101798.59;;;17.89;100.00
37878;BME280;23715;53.652;8.516;2023-10-09T08:10:46;101796.59;;;17.78;100.00
37878;BME280;23715;53.652;8.516;2023-10-09T08:16:08;101797.29;;;17.98;100.00
37878;BME280;23715;53.652;8.516;2023-10-09T08:21:10;101794.58;;;18.20;100.00
37878;BME280;23715;53.652;8.516;2023-10-09T08:26:18;101797.89;;;18.09;100.00
37878;BME280;23715;53.652;8.516;2023-10-09T08:31:38;101797.30;;;18.20;100.00
37878;BME280;23715;53.652;8.516;2023-10-09T08:36:59;101811.38;;;18.15;100.00
37878;BME280;23715;53.652;8.516;2023-10-09T08:42:01;101813.61;;;18.42;100.00
37878;BME280;23715;53.652;8.516;2023-10-09T08:47:06;101819.75;;;18.44;100.00
37878;BME280;23715;53.652;8.516;2023-10-09T08:52:08;101825.97;;;18.32;100.00
37878;BME280;23715;53.652;8.516;2023-10-09T08:57:15;101846.61;;;18.17;100.00
37878;BME280;23715;53.652;8.516;2023-10-09T09:02:12;101869.30;;;18.03;100.00
37878;BME280;23715;53.652;8.516;2023-10-09T09:07:28;101884.23;;;18.39;100.00
37878;BME280;23715;53.652;8.516;2023-10-09T09:17:37;101923.23;;;18.22;100.00
37878;BME280;23715;53.652;8.516;2023-10-09T09:22:55;101914.59;;;18.44;100.00
37878;BME280;23715;53.652;8.516;2023-10-09T09:27:58;101907.14;;;18.50;100.00
37878;BME280;23715;53.652;8.516;2023-10-09T09:38:45;101905.23;;;18.69;100.00
37878;BME280;23715;53.652;8.516;2023-10-09T09:43:57;101908.83;;;18.73;100.00
37878;BME280;23715;53.652;8.516;2023-10-09T09:48:57;101919.89;;;18.72;100.00
37878;BME280;23715;53.652;8.516;2023-10-09T09:54:00;101960.55;;;18.11;100.00
37878;BME280;23715;53.652;8.516;2023-10-09T09:59:03;101993.58;;;18.12;100.00
37878;BME280;23715;53.652;8.516;2023-10-09T10:04:12;102044.08;;;17.83;100.00
37878;BME280;23715;53.652;8.516;2023-10-09T10:14:55;102128.80;;;17.84;100.00
37878;BME280;23715;53.652;8.516;2023-10-09T10:20:05;102173.36;;;17.64;100.00
37878;BME280;23715;53.652;8.516;2023-10-09T10:25:32;102241.13;;;18.00;100.00
37878;BME280;23715;53.652;8.516;2023-10-09T10:30:36;102265.19;;;17.75;100.00
37878;BME280;23715;53.652;8.516;2023-10-09T10:35:39;102274.36;;;18.04;100.00
37878;BME280;23715;53.652;8.516;2023-10-09T10:40:43;102283.23;;;18.06;100.00
37878;BME280;23715;53.652;8.516;2023-10-09T10:46:07;102295.01;;;18.30;100.00
37878;BME280;23715;53.652;8.516;2023-10-09T10:51:16;102320.49;;;18.05;100.00
37878;BME280;23715;53.652;8.516;2023-10-09T10:56:18;102330.14;;;18.13;100.00
37878;BME280;23715;53.652;8.516;2023-10-09T11:01:20;102363.74;;;18.28;100.00
37878;BME280;23715;53.652;8.516;2023-10-09T11:06:30;102393.27;;;18.23;100.00
37878;BME280;23715;53.652;8.516;2023-10-09T11:11:37;102421.86;;;18.42;100.00
37878;BME280;23715;53.652;8.516;2023-10-09T11:16:44;102446.34;;;18.62;100.00
37878;BME280;23715;53.652;8.516;2023-10-09T11:21:57;102448.53;;;18.72;100.00
37878;BME280;23715;53.652;8.516;2023-10-09T11:27:08;102436.53;;;18.45;100.00
37878;BME280;23715;53.652;8.516;2023-10-09T11:32:18;102431.64;;;18.59;100.00
37878;BME280;23715;53.652;8.516;2023-10-09T11:37:24;102432.31;;;18.47;100.00
37878;BME280;23715;53.652;8.516;2023-10-09T11:42:31;102438.66;;;18.71;100.00
37878;BME280;23715;53.652;8.516;2023-10-09T11:47:36;102413.59;;;18.38;100.00
37878;BME280;23715;53.652;8.516;2023-10-09T11:52:58;102422.11;;;18.59;100.00
37878;BME280;23715;53.652;8.516;2023-10-09T11:58:17;102416.50;;;18.27;100.00
37878;BME280;23715;53.652;8.516;2023-10-09T12:03:33;102441.30;;;18.77;100.00
37878;BME280;23715;53.652;8.516;2023-10-09T12:08:34;102443.19;;;18.57;100.00
37878;BME280;23715;53.652;8.516;2023-10-09T12:13:37;102463.52;;;18.29;100.00
37878;BME280;23715;53.652;8.516;2023-10-09T12:18:47;102486.14;;;18.49;100.00
37878;BME280;23715;53.652;8.516;2023-10-09T12:23:52;102505.52;;;18.46;100.00
37878;BME280;23715;53.652;8.516;2023-10-09T12:29:03;102523.48;;;18.72;100.00
37878;BME280;23715;53.652;8.516;2023-10-09T12:34:05;102485.41;;;18.96;100.00
37878;BME280;23715;53.652;8.516;2023-10-09T12:39:05;102451.48;;;19.08;100.00
37878;BME280;23715;53.652;8.516;2023-10-09T12:44:09;102423.73;;;18.12;100.00
37878;BME280;23715;53.652;8.516;2023-10-09T12:49:19;102468.42;;;18.59;100.00
37878;BME280;23715;53.652;8.516;2023-10-09T12:54:27;102458.02;;;18.68;100.00
37878;BME280;23715;53.652;8.516;2023-10-09T12:59:27;102458.02;;;18.68;100.00
37878;BME280;23715;53.652;8.516;2023-10-09T13:04:27;102446.44;;;18.46;100.00
37878;BME280;23715;53.652;8.516;2023-10-09T13:09:36;102425.02;;;17.73;100.00
37878;BME280;23715;53.652;8.516;2023-10-09T13:14:44;102435.98;;;18.12;100.00
37878;BME280;23715;53.652;8.516;2023-10-09T13:19:41;102429.47;;;18.29;100.00
37878;BME280;23715;53.652;8.516;2023-10-09T13:24:44;102417.20;;;18.72;100.00
37878;BME280;23715;53.652;8.516;2023-10-09T13:29:48;102381.31;;;18.20;100.00
37878;BME280;23715;53.652;8.516;2023-10-09T13:34:52;102372.80;;;17.89;100.00
37878;BME280;23715;53.652;8.516;2023-10-09T13:39:54;102374.65;;;18.18;100.00
37878;BME280;23715;53.652;8.516;2023-10-09T13:44:55;102382.50;;;17.82;100.00
37878;BME280;23715;53.652;8.516;2023-10-09T13:49:55;102401.66;;;17.96;100.00
37878;BME280;23715;53.652;8.516;2023-10-09T13:54:56;102407.61;;;17.61;100.00
37878;BME280;23715;53.652;8.516;2023-10-09T13:59:57;102417.58;;;17.91;100.00
37878;BME280;23715;53.652;8.516;2023-10-09T14:05:04;102405.33;;;17.91;100.00
37878;BME280;23715;53.652;8.516;2023-10-09T14:10:05;102394.28;;;17.58;100.00
37878;BME280;23715;53.652;8.516;2023-10-09T14:15:16;102437.41;;;17.87;100.00
37878;BME280;23715;53.652;8.516;2023-10-09T14:20:22;102428.77;;;17.47;100.00
37878;BME280;23715;53.652;8.516;2023-10-09T14:25:37;102427.73;;;17.73;100.00
37878;BME280;23715;53.652;8.516;2023-10-09T14:30:45;102433.11;;;17.79;100.00
37878;BME280;23715;53.652;8.516;2023-10-09T14:35:46;102428.22;;;17.98;100.00
37878;BME280;23715;53.652;8.516;2023-10-09T14:40:47;102401.82;;;18.04;100.00
37878;BME280;23715;53.652;8.516;2023-10-09T14:45:57;102386.94;;;17.39;100.00
37878;BME280;23715;53.652;8.516;2023-10-09T14:50:56;102431.41;;;17.78;100.00
37878;BME280;23715;53.652;8.516;2023-10-09T14:56:05;102427.84;;;17.78;100.00
37878;BME280;23715;53.652;8.516;2023-10-09T15:01:09;102404.50;;;17.50;100.00
37878;BME280;23715;53.652;8.516;2023-10-09T15:06:11;102422.30;;;18.08;100.00
37878;BME280;23715;53.652;8.516;2023-10-09T15:11:20;102417.06;;;18.01;100.00
37878;BME280;23715;53.652;8.516;2023-10-09T15:16:18;102406.41;;;17.79;100.00
37878;BME280;23715;53.652;8.516;2023-10-09T15:21:23;102417.02;;;17.56;100.00
37878;BME280;23715;53.652;8.516;2023-10-09T15:26:30;102431.74;;;17.19;100.00
37878;BME280;23715;53.652;8.516;2023-10-09T15:31:32;102479.55;;;16.85;100.00
37878;BME280;23715;53.652;8.516;2023-10-09T15:42:06;102534.08;;;17.14;100.00
37878;BME280;23715;53.652;8.516;2023-10-09T15:47:17;102546.79;;;16.98;100.00
37878;BME280;23715;53.652;8.516;2023-10-09T15:52:17;102556.52;;;17.22;100.00
37878;BME280;23715;53.652;8.516;2023-10-09T15:57:26;102565.66;;;17.06;100.00
37878;BME280;23715;53.652;8.516;2023-10-09T16:02:30;102573.64;;;17.65;100.00
37878;BME280;23715;53.652;8.516;2023-10-09T16:07:35;102538.28;;;17.13;100.00
37878;BME280;23715;53.652;8.516;2023-10-09T16:22:50;102524.14;;;17.40;100.00
37878;BME280;23715;53.652;8.516;2023-10-09T16:28:00;102520.51;;;18.01;100.00
37878;BME280;23715;53.652;8.516;2023-10-09T16:33:04;102483.45;;;17.79;100.00
37878;BME280;23715;53.652;8.516;2023-10-09T16:38:10;102464.41;;;17.29;100.00
37878;BME280;23715;53.652;8.516;2023-10-09T16:43:16;102494.90;;;17.48;100.00
37878;BME280;23715;53.652;8.516;2023-10-09T16:48:21;102496.86;;;17.21;100.00
37878;BME280;23715;53.652;8.516;2023-10-09T16:53:30;102504.77;;;17.18;100.00
37878;BME280;23715;53.652;8.516;2023-10-09T16:58:50;102527.11;;;17.52;100.00
37878;BME280;23715;53.652;8.516;2023-10-09T17:03:51;102524.86;;;17.83;100.00
37878;BME280;23715;53.652;8.516;2023-10-09T17:08:55;102498.61;;;17.31;100.00
37878;BME280;23715;53.652;8.516;2023-10-09T17:13:56;102511.95;;;17.34;100.00
37878;BME280;23715;53.652;8.516;2023-10-09T17:29:06;102587.93;;;16.94;100.00
37878;BME280;23715;53.652;8.516;2023-10-09T17:34:11;102610.67;;;17.71;100.00
37878;BME280;23715;53.652;8.516;2023-10-09T17:39:17;102588.73;;;17.63;100.00
37878;BME280;23715;53.652;8.516;2023-10-09T17:44:20;102565.20;;;17.83;100.00
37878;BME280;23715;53.652;8.516;2023-10-09T17:49:20;102547.22;;;17.46;100.00
37878;BME280;23715;53.652;8.516;2023-10-09T17:54:22;102548.91;;;17.31;100.00
37878;BME280;23715;53.652;8.516;2023-10-09T17:59:32;102557.83;;;17.28;100.00
37878;BME280;23715;53.652;8.516;2023-10-09T18:04:31;102583.46;;;17.41;100.00
37878;BME280;23715;53.652;8.516;2023-10-09T18:09:39;102574.32;;;17.42;100.00
37878;BME280;23715;53.652;8.516;2023-10-09T18:14:49;102554.73;;;17.63;100.00
37878;BME280;23715;53.652;8.516;2023-10-09T18:19:50;102545.03;;;18.21;100.00
37878;BME280;23715;53.652;8.516;2023-10-09T18:24:54;102511.95;;;18.16;100.00
37878;BME280;23715;53.652;8.516;2023-10-09T18:30:08;102488.74;;;18.31;100.00
37878;BME280;23715;53.652;8.516;2023-10-09T18:35:14;102459.27;;;18.21;100.00
37878;BME280;23715;53.652;8.516;2023-10-09T18:40:15;102434.97;;;18.13;100.00
37878;BME280;23715;53.652;8.516;2023-10-09T18:45:17;102418.58;;;18.29;100.00
37878;BME280;23715;53.652;8.516;2023-10-09T18:50:24;102390.45;;;17.80;100.00
37878;BME280;23715;53.652;8.516;2023-10-09T18:55:25;102393.42;;;18.31;100.00
37878;BME280;23715;53.652;8.516;2023-10-09T19:00:30;102372.02;;;18.56;100.00
37878;BME280;23715;53.652;8.516;2023-10-09T19:05:44;102346.83;;;18.24;100.00
37878;BME280;23715;53.652;8.516;2023-10-09T19:10:46;102342.27;;;18.05;100.00
37878;BME280;23715;53.652;8.516;2023-10-09T19:15:49;102330.17;;;17.94;100.00
37878;BME280;23715;53.652;8.516;2023-10-09T19:20:55;102327.80;;;18.14;100.00
37878;BME280;23715;53.652;8.516;2023-10-09T19:26:02;102319.56;;;18.10;100.00
37878;BME280;23715;53.652;8.516;2023-10-09T19:31:10;102310.86;;;18.21;100.00
37878;BME280;23715;53.652;8.516;2023-10-09T19:36:11;102298.36;;;18.14;100.00
37878;BME280;23715;53.652;8.516;2023-10-09T19:41:16;102284.01;;;18.22;100.00
37878;BME280;23715;53.652;8.516;2023-10-09T19:46:19;102264.52;;;18.17;100.00
37878;BME280;23715;53.652;8.516;2023-10-09T19:51:21;102273.95;;;17.89;100.00
37878;BME280;23715;53.652;8.516;2023-10-09T19:56:27;102264.77;;;17.80;100.00
37878;BME280;23715;53.652;8.516;2023-10-09T20:01:37;102258.94;;;18.18;100.00
37878;BME280;23715;53.652;8.516;2023-10-09T20:06:42;102258.44;;;17.85;100.00
37878;BME280;23715;53.652;8.516;2023-10-09T20:11:44;102244.19;;;18.11;100.00
37878;BME280;23715;53.652;8.516;2023-10-09T20:16:47;102232.47;;;18.24;100.00
37878;BME280;23715;53.652;8.516;2023-10-09T20:21:49;102235.78;;;17.85;100.00
37878;BME280;23715;53.652;8.516;2023-10-09T20:32:08;102248.03;;;17.85;100.00
37878;BME280;23715;53.652;8.516;2023-10-09T20:37:14;102243.81;;;17.86;100.00
37878;BME280;23715;53.652;8.516;2023-10-09T20:42:17;102248.09;;;17.89;100.00
37878;BME280;23715;53.652;8.516;2023-10-09T20:47:40;102258.36;;;17.91;100.00
37878;BME280;23715;53.652;8.516;2023-10-09T20:57:46;102243.22;;;18.02;100.00
37878;BME280;23715;53.652;8.516;2023-10-09T21:02:54;102224.39;;;18.19;100.00
37878;BME280;23715;53.652;8.516;2023-10-09T21:08:06;102216.20;;;18.05;100.00
37878;BME280;23715;53.652;8.516;2023-10-09T21:13:04;102208.92;;;17.95;100.00
37878;BME280;23715;53.652;8.516;2023-10-09T21:18:09;102204.15;;;18.07;100.00
37878;BME280;23715;53.652;8.516;2023-10-09T21:23:16;102193.08;;;18.32;100.00
37878;BME280;23715;53.652;8.516;2023-10-09T21:28:18;102194.01;;;18.37;100.00
37878;BME280;23715;53.652;8.516;2023-10-09T21:33:16;102190.48;;;18.41;100.00
37878;BME280;23715;53.652;8.516;2023-10-09T21:38:18;102194.34;;;18.24;100.00
37878;BME280;23715;53.652;8.516;2023-10-09T21:43:18;102197.15;;;18.42;100.00
37878;BME280;23715;53.652;8.516;2023-10-09T21:48:20;102181.01;;;18.07;100.00
37878;BME280;23715;53.652;8.516;2023-10-09T21:53:31;102206.93;;;17.88;100.00
37878;BME280;23715;53.652;8.516;2023-10-09T21:58:32;102220.77;;;17.61;100.00
37878;BME280;23715;53.652;8.516;2023-10-09T22:03:34;102238.95;;;17.61;100.00
37878;BME280;23715;53.652;8.516;2023-10-09T22:08:36;102244.09;;;17.64;100.00
37878;BME280;23715;53.652;8.516;2023-10-09T22:13:36;102270.85;;;17.39;100.00
37878;BME280;23715;53.652;8.516;2023-10-09T22:18:40;102266.88;;;17.53;100.00
37878;BME280;23715;53.652;8.516;2023-10-09T22:23:43;102259.95;;;18.07;100.00
37878;BME280;23715;53.652;8.516;2023-10-09T22:28:54;102249.08;;;18.31;100.00
37878;BME280;23715;53.652;8.516;2023-10-09T22:33:59;102237.59;;;18.37;100.00
37878;BME280;23715;53.652;8.516;2023-10-09T22:38:59;102223.25;;;18.21;100.00
37878;BME280;23715;53.652;8.516;2023-10-09T22:44:03;102226.97;;;18.58;100.00
37878;BME280;23715;53.652;8.516;2023-10-09T22:49:15;102225.80;;;18.60;100.00
37878;BME280;23715;53.652;8.516;2023-10-09T22:54:31;102210.09;;;18.72;100.00
37878;BME280;23715;53.652;8.516;2023-10-09T22:59:36;102211.32;;;19.01;100.00
37878;BME280;23715;53.652;8.516;2023-10-09T23:04:53;102194.25;;;19.17;100.00
37878;BME280;23715;53.652;8.516;2023-10-09T23:10:00;102185.45;;;19.05;100.00
37878;BME280;23715;53.652;8.516;2023-10-09T23:15:16;102178.72;;;18.96;100.00
37878;BME280;23715;53.652;8.516;2023-10-09T23:20:35;102170.27;;;19.03;100.00
37878;BME280;23715;53.652;8.516;2023-10-09T23:25:40;102171.42;;;19.00;100.00
37878;BME280;23715;53.652;8.516;2023-10-09T23:30:42;102163.69;;;18.91;100.00
37878;BME280;23715;53.652;8.516;2023-10-09T23:35:42;102155.26;;;18.71;100.00
37878;BME280;23715;53.652;8.516;2023-10-09T23:40:59;102159.72;;;18.76;100.00
37878;BME280;23715;53.652;8.516;2023-10-09T23:46:13;102162.30;;;18.78;100.00
37878;BME280;23715;53.652;8.516;2023-10-09T23:51:18;102152.38;;;18.72;100.00
37878;BME280;23715;53.652;8.516;2023-10-09T23:56:19;102154.89;;;18.70;100.00
